createdAt,value
2018-07-25T00:01:52.673Z,8.20
2018-07-25T00:06:55.842Z,7.73
2018-07-25T00:11:58.779Z,7.03
2018-07-25T00:17:01.966Z,6.37
2018-07-25T00:22:05.146Z,6.47
2018-07-25T00:27:08.079Z,9.43
2018-07-25T00:32:11.021Z,9.80
2018-07-25T00:37:14.212Z,7.60
2018-07-25T00:42:17.399Z,7.20
2018-07-25T00:47:20.562Z,7.80
2018-07-25T00:52:23.727Z,13.67
2018-07-25T00:57:26.898Z,9.43
2018-07-25T01:02:30.098Z,9.23
2018-07-25T01:07:33.339Z,9.63
2018-07-25T01:12:36.616Z,8.03
2018-07-25T01:17:39.971Z,10.83
2018-07-25T01:22:43.178Z,11.60
2018-07-25T01:27:46.406Z,13.03
2018-07-25T01:32:49.618Z,10.63
2018-07-25T01:37:52.865Z,11.17
2018-07-25T01:42:56.134Z,11.87
2018-07-25T01:47:59.342Z,12.67
2018-07-25T01:53:02.317Z,10.90
2018-07-25T01:58:05.551Z,12.57
2018-07-25T02:03:08.906Z,10.43
2018-07-25T02:08:12.135Z,9.53
2018-07-25T02:13:16.422Z,10.80
2018-07-25T02:18:19.582Z,8.13
2018-07-25T02:23:22.560Z,8.40
2018-07-25T02:28:25.726Z,8.93
2018-07-25T02:33:34.330Z,8.77
2018-07-25T02:38:37.515Z,9.47
2018-07-25T02:43:40.796Z,10.27
2018-07-25T02:48:43.871Z,9.03
2018-07-25T02:53:47.054Z,10.40
2018-07-25T02:58:50.235Z,11.90
2018-07-25T03:03:53.442Z,11.27
2018-07-25T03:08:56.685Z,11.20
2018-07-25T03:13:59.865Z,11.67
2018-07-25T03:19:03.112Z,10.27
2018-07-25T03:24:06.294Z,12.33
2018-07-25T03:29:09.531Z,13.73
2018-07-25T03:34:12.800Z,10.97
2018-07-25T03:39:15.990Z,12.07
2018-07-25T03:44:19.285Z,11.27
2018-07-25T03:49:22.463Z,9.63
2018-07-25T03:54:25.690Z,11.37
2018-07-25T03:59:28.890Z,11.67
2018-07-25T04:04:32.100Z,10.97
2018-07-25T04:09:35.379Z,10.73
2018-07-25T04:14:38.621Z,10.80
2018-07-25T04:19:41.611Z,12.87
2018-07-25T04:24:44.843Z,12.23
2018-07-25T14:12:48.730Z,6.20
2018-07-25T14:17:52.435Z,5.40
2018-07-25T14:22:55.581Z,5.20
2018-07-25T14:27:58.941Z,5.47
2018-07-25T14:33:02.394Z,8.03
2018-07-25T14:38:06.330Z,4.70
2018-07-25T14:43:09.671Z,6.00
2018-07-25T14:48:13.063Z,7.43
2018-07-25T14:53:16.327Z,5.77
2018-07-25T14:58:19.585Z,4.33
2018-07-25T15:03:22.848Z,4.37
2018-07-25T15:08:26.503Z,6.07
2018-07-25T15:13:30.185Z,4.03
2018-07-25T15:18:33.482Z,3.97
2018-07-25T15:24:03.486Z,4.10
2018-07-25T15:29:06.697Z,11.33
2018-07-25T15:34:09.899Z,5.00
2018-07-25T15:39:17.723Z,5.03
2018-07-25T15:44:22.031Z,7.43
2018-07-25T15:49:26.284Z,6.37
2018-07-25T15:54:29.812Z,7.00
2018-07-25T15:59:33.191Z,5.07
2018-07-25T16:04:36.491Z,4.10
2018-07-25T16:09:39.845Z,4.33
2018-07-25T16:14:43.031Z,5.03
2018-07-25T16:19:46.386Z,5.37
2018-07-25T16:24:49.581Z,5.33
2018-07-25T16:29:52.814Z,5.80
2018-07-25T16:34:56.003Z,4.60
2018-07-25T16:39:59.746Z,4.87
2018-07-25T16:45:03.122Z,3.17
2018-07-25T16:50:06.318Z,4.07
2018-07-25T16:55:09.507Z,4.70
2018-07-25T17:00:12.702Z,9.17
2018-07-25T17:05:16.214Z,2.63
2018-07-25T17:10:19.210Z,6.33
2018-07-25T17:15:22.909Z,5.70
2018-07-25T17:20:26.449Z,5.07
2018-07-25T17:25:30.163Z,8.60
2018-07-25T17:30:33.391Z,6.87
2018-07-25T17:35:36.598Z,6.07
2018-07-25T17:40:40.222Z,4.30
2018-07-25T17:45:43.551Z,4.33
2018-07-25T17:50:47.056Z,4.33
2018-07-25T17:55:50.579Z,6.47
2018-07-25T18:00:53.975Z,7.73
2018-07-25T18:05:57.274Z,11.57
2018-07-25T18:11:01.640Z,13.47
2018-07-25T18:16:04.979Z,9.70
2018-07-25T18:21:08.374Z,8.80
2018-07-25T18:26:11.918Z,11.13
2018-07-25T18:31:15.610Z,11.30
2018-07-25T18:36:18.968Z,12.73
2018-07-25T18:41:22.342Z,13.63
2018-07-25T18:46:25.694Z,11.37
2018-07-25T18:51:29.042Z,9.57
2018-07-25T18:56:32.242Z,11.50
2018-07-25T19:01:35.548Z,10.83
2018-07-25T19:06:38.802Z,11.90
2018-07-25T19:11:42.047Z,11.50
2018-07-25T19:16:44.978Z,8.83
2018-07-25T19:21:48.731Z,13.20
2018-07-25T19:26:52.149Z,15.37
2018-07-25T19:31:55.371Z,13.90
2018-07-25T19:36:58.718Z,11.93
2018-07-25T19:42:01.926Z,11.90
2018-07-25T19:47:05.583Z,10.83
2018-07-25T19:52:08.942Z,9.53
2018-07-25T19:57:12.881Z,12.37
2018-07-25T20:02:16.246Z,12.80
2018-07-25T20:07:19.264Z,13.10
2018-07-25T20:12:22.459Z,10.00
2018-07-25T20:17:26.033Z,9.77
2018-07-25T20:22:29.288Z,10.40
2018-07-25T20:27:32.463Z,10.63
2018-07-25T20:32:35.661Z,10.77
2018-07-25T20:37:38.838Z,10.00
2018-07-25T20:42:42.317Z,11.23
2018-07-25T20:47:45.503Z,10.40
2018-07-25T20:52:48.683Z,9.63
2018-07-25T20:57:51.910Z,9.93
2018-07-25T21:02:55.095Z,6.73
2018-07-25T21:07:58.290Z,8.07
2018-07-25T21:13:01.466Z,11.47
2018-07-25T21:18:04.819Z,8.87
2018-07-25T21:23:08.014Z,9.03
2018-07-25T21:28:10.990Z,7.03
2018-07-25T21:33:14.171Z,8.10
2018-07-25T21:38:17.368Z,7.63
2018-07-25T21:43:20.678Z,7.00
2018-07-25T21:48:23.878Z,7.83
2018-07-25T21:53:27.051Z,7.43
2018-07-25T21:58:30.218Z,6.87
2018-07-25T22:03:33.766Z,7.87
2018-07-25T22:08:36.979Z,8.50
2018-07-25T22:13:45.560Z,9.53
2018-07-25T22:18:48.738Z,9.60
2018-07-25T22:23:51.911Z,9.17
2018-07-25T22:28:55.178Z,9.17
2018-07-25T22:33:58.361Z,8.93
2018-07-25T22:39:01.547Z,8.73
2018-07-25T22:44:04.722Z,10.77
2018-07-25T22:49:07.903Z,8.93
2018-07-25T22:54:11.074Z,8.13
2018-07-25T22:59:14.258Z,8.53
2018-07-25T23:04:17.514Z,9.57
2018-07-25T23:09:20.706Z,8.83
2018-07-25T23:14:23.915Z,7.77
2018-07-25T23:19:27.140Z,8.30
2018-07-25T23:24:30.336Z,10.10
2018-07-25T23:29:33.626Z,10.63
2018-07-25T23:34:36.750Z,7.60
2018-07-25T23:39:39.942Z,9.03
2018-07-25T23:44:43.134Z,7.70
2018-07-25T23:49:46.318Z,9.10
2018-07-25T23:54:49.526Z,6.77
2018-07-25T23:59:52.733Z,7.60
